Bookmark and Share
Track history (hours):
 

Condock 2

Last reported at 2013-Feb-20 13:13 UTC. Time now 2014-Apr-19 09:32 UTC.
Position N 49°28' E 000°16'.
Warning: this ship's position is years out of date!

; draft 4 m.

Type: Ship. MMSI: 218587000.

NotesDate/timePositionNaut miles runAvg speedWind from/ knotsBaromVisibWave heightAir tempDewpointWater temp
2013-Feb-20 13:13N 49°28' E 000°16'0 0.0
2013-Feb-20 12:31N 49°28' E 000°16'0 0.0
2013-Feb-20 11:31N 49°28' E 000°16'0 0.0
2013-Feb-20 10:31N 49°28' E 000°16'0 0.0
2013-Feb-20 09:28N 49°28' E 000°16'0 0.0
2013-Feb-20 08:31N 49°28' E 000°16'0 0.0
2013-Feb-20 07:34N 49°28' E 000°16'3 3.3
2013-Feb-20 06:33N 49°29' E 000°11'1 0.7
2013-Feb-20 05:34N 49°28' E 000°10'8 7.4
2013-Feb-20 04:32N 49°30' W 000°02'1 0.4
2013-Feb-20 02:04N 49°29' W 000°02'0 0.0
2013-Feb-20 01:31N 49°29' W 000°02'0 0.0
2013-Feb-20 00:31N 49°29' W 000°02'0 0.0
2013-Feb-19 23:31N 49°29' W 000°02'0 0.0
2013-Feb-19 22:16N 49°29' W 000°02'0 0.0
2013-Feb-19 21:31N 49°29' W 000°02'0 0.0
2013-Feb-19 20:31N 49°29' W 000°02'0 0.0
2013-Feb-19 19:31N 49°29' W 000°02'0 0.0
2013-Feb-19 18:25N 49°29' W 000°02'0 0.0
2013-Feb-19 17:28N 49°29' W 000°02'6210.0
2013-Feb-19 11:17N 49°52' W 001°31'810.1
2013-Feb-19 10:28N 49°52' W 001°44'10 9.3
2013-Feb-19 09:24N 49°53' W 001°59'8 8.8
2013-Feb-19 08:33N 49°53' W 002°11'10 8.7
2013-Feb-19 07:27N 49°52' W 002°26'8 9.1
2013-Feb-19 06:32N 49°50' W 002°38'11 9.6
2013-Feb-19 05:24N 49°47' W 002°54'1010.5
2013-Feb-19 04:30N 49°42' W 003°07'11 9.8
2013-Feb-19 03:22N 49°37' W 003°22'910.2
2013-Feb-19 02:29N 49°32' W 003°34'363 9.8
2013-Feb-17 13:13N 44°37' W 008°45'1010.3
2013-Feb-17 12:16N 44°28' W 008°51'810.4
2013-Feb-17 11:29N 44°21' W 008°56'1010.8
2013-Feb-17 10:33N 44°12' W 009°03'2210.8
2013-Feb-17 08:31N 43°52' W 009°16'1111.0
2013-Feb-17 07:33N 43°43' W 009°24'1111.1
2013-Feb-17 06:33N 43°33' W 009°31'1211.3
2013-Feb-17 05:31N 43°22' W 009°38'1010.8
2013-Feb-17 04:33N 43°13' W 009°44'9810.8
2013-Feb-16 19:32N 41°35' W 009°47'3410.7
2013-Feb-16 16:22N 41°01' W 009°48'17510.4
2013-Feb-15 23:33N 38°07' W 009°39'1010.3
2013-Feb-15 22:33N 37°57' W 009°37'1010.1
2013-Feb-15 21:33N 37°47' W 009°34'10 9.8
2013-Feb-15 20:33N 37°37' W 009°31'59 9.2
2013-Feb-15 14:10N 36°44' W 009°01'6 9.4
2013-Feb-15 13:31N 36°42' W 008°53'1010.1
2013-Feb-15 12:28N 36°39' W 008°41'1010.6
2013-Feb-15 11:33N 36°35' W 008°29'1110.7
2013-Feb-15 10:30N 36°32' W 008°16'1511.0
2013-Feb-15 09:07N 36°26' W 007°58'610.9
2013-Feb-15 08:31N 36°24' W 007°51'2310.8
2013-Feb-15 06:25N 36°18' W 007°24'3410.6
2013-Feb-15 03:16N 36°07' W 006°45'78 9.9
2013-Feb-14 19:21N 36°03' W 005°08'61 8.9
2013-Feb-14 12:28N 36°13' W 003°54'113 9.4
2013-Feb-14 00:30N 36°48' W 001°40'6410.2
2013-Feb-13 18:16N 37°30' W 000°40'7 9.4
2013-Feb-13 17:33N 37°35' W 000°34'1010.1
2013-Feb-13 16:33N 37°43' W 000°26'1111.1
2013-Feb-13 15:33N 37°52' W 000°19'9110.7
2013-Feb-13 07:05N 39°12' E 000°36'10110.2
2013-Feb-12 21:11N 40°50' E 001°09'11 9.5
2013-Feb-12 20:03N 41°01' E 001°12'  

Dump ship's entire track history

sailing weather and tide predictions

Condock 2 — DDQS2 — position and weather